Time;durP1;ratioP1;P1;durP2;ratioP2;P2;SDS_P1;SDS_P2;PMS_P1;PMS_P2;Temp;Humidity;BMP_temperature;BMP_pressure;BME280_temperature;BME280_humidity;BME280_pressure;Samples;Min_cycle;Max_cycle;Signal;HPM_P1;HPM_P2
2021/10/27 00:00:06;;;;;;;10.20;4.30;;;15.00;99.90;;;;;;4995322;28;20597;-78
2021/10/27 00:02:34;;;;;;;7.50;4.15;;;14.90;99.90;;;;;;4995440;28;20224;-78
2021/10/27 00:05:00;;;;;;;11.20;4.07;;;14.90;99.90;;;;;;4995206;28;20165;-79
2021/10/27 00:07:26;;;;;;;9.27;3.92;;;15.00;99.90;;;;;;4995620;28;20636;-78
2021/10/27 00:09:52;;;;;;;12.93;3.42;;;14.90;99.90;;;;;;4995519;28;20193;-78
2021/10/27 00:12:21;;;;;;;7.75;2.92;;;15.00;99.90;;;;;;4994683;28;20165;-78
2021/10/27 00:14:46;;;;;;;7.38;3.53;;;14.90;99.90;;;;;;4994178;28;20189;-78
2021/10/27 00:17:12;;;;;;;4.22;3.67;;;14.90;99.90;;;;;;4995049;28;20637;-78
2021/10/27 00:19:37;;;;;;;6.57;3.15;;;14.90;99.90;;;;;;4995167;28;20189;-78
2021/10/27 00:22:06;;;;;;;14.68;2.90;;;14.90;99.90;;;;;;4993902;28;20255;-77
2021/10/27 00:24:32;;;;;;;8.98;3.42;;;15.00;99.90;;;;;;4994853;28;20251;-79
2021/10/27 00:26:58;;;;;;;8.55;3.67;;;14.90;99.90;;;;;;4994692;28;20248;-78
2021/10/27 00:29:23;;;;;;;7.43;3.22;;;14.90;99.90;;;;;;4993152;28;20185;-77
2021/10/27 00:31:49;;;;;;;5.13;3.50;;;14.80;99.90;;;;;;4993599;28;20628;-77
2021/10/27 00:34:14;;;;;;;8.48;3.70;;;14.80;99.90;;;;;;4994779;28;20195;-77
2021/10/27 00:36:40;;;;;;;4.72;3.22;;;14.80;99.90;;;;;;4994690;28;20169;-78
2021/10/27 00:39:09;;;;;;;4.13;3.35;;;14.80;99.90;;;;;;4994796;28;20189;-78
2021/10/27 00:41:34;;;;;;;10.25;4.05;;;14.90;99.90;;;;;;4994695;28;20284;-78
2021/10/27 00:44:00;;;;;;;10.50;4.43;;;14.80;99.90;;;;;;4994641;28;20256;-80
2021/10/27 00:46:26;;;;;;;4.72;3.72;;;14.70;99.90;;;;;;4994436;28;20252;-79
2021/10/27 00:48:55;;;;;;;11.63;4.32;;;14.70;99.90;;;;;;4993198;28;20332;-79
2021/10/27 00:51:20;;;;;;;9.55;4.60;;;14.70;99.90;;;;;;4994583;28;20169;-78
2021/10/27 00:53:47;;;;;;;10.50;4.72;;;14.70;99.90;;;;;;4994784;28;20188;-78
2021/10/27 00:56:13;;;;;;;6.03;4.40;;;14.60;99.90;;;;;;4994407;28;20219;-78
2021/10/27 00:58:40;;;;;;;5.18;4.60;;;14.50;99.90;;;;;;4992880;28;20335;-78
2021/10/27 01:01:07;;;;;;;6.57;4.72;;;14.60;99.90;;;;;;4994495;28;20246;-78
2021/10/27 01:03:35;;;;;;;12.57;5.20;;;14.70;99.90;;;;;;4994314;28;20169;-79
2021/10/27 01:06:02;;;;;;;9.57;5.18;;;14.90;99.90;;;;;;4994757;28;20176;-78
2021/10/27 01:08:28;;;;;;;14.85;5.78;;;15.00;99.90;;;;;;4994540;28;20184;-78
2021/10/27 01:10:54;;;;;;;7.63;5.57;;;15.10;99.90;;;;;;4994494;28;20191;-77
2021/10/27 01:13:20;;;;;;;7.13;4.22;;;15.10;99.90;;;;;;4994367;28;20244;-78
2021/10/27 01:15:46;;;;;;;11.43;5.43;;;15.10;99.90;;;;;;4994481;28;20252;-78
2021/10/27 01:18:12;;;;;;;6.95;4.70;;;14.90;99.90;;;;;;4994173;28;20204;-78
2021/10/27 01:20:38;;;;;;;12.45;4.93;;;14.90;99.90;;;;;;4993017;28;20220;-78
2021/10/27 01:23:03;;;;;;;9.80;5.07;;;14.70;99.90;;;;;;4993691;28;20177;-78
2021/10/27 01:25:29;;;;;;;8.57;4.80;;;14.70;99.90;;;;;;4993630;28;20176;-78
2021/10/27 01:27:56;;;;;;;8.35;4.55;;;14.50;99.90;;;;;;4993983;28;20173;-78
2021/10/27 01:30:23;;;;;;;7.53;4.82;;;14.50;99.90;;;;;;4993894;28;20168;-78
2021/10/27 01:32:50;;;;;;;9.57;4.60;;;14.60;99.90;;;;;;4994094;28;20187;-77
2021/10/27 01:35:16;;;;;;;16.25;6.22;;;14.60;99.90;;;;;;4992744;28;20169;-78
2021/10/27 01:37:43;;;;;;;10.55;5.60;;;14.50;99.90;;;;;;4992480;28;20165;-78
2021/10/27 01:40:12;;;;;;;10.68;4.95;;;14.40;99.90;;;;;;4993939;28;20200;-78
2021/10/27 01:42:39;;;;;;;8.77;5.28;;;14.50;99.90;;;;;;4993797;28;20553;-79
2021/10/27 01:45:06;;;;;;;9.70;4.90;;;14.50;99.90;;;;;;4993588;28;20161;-78
2021/10/27 01:47:32;;;;;;;7.72;5.30;;;14.40;99.90;;;;;;4993580;28;20173;-78
2021/10/27 01:49:58;;;;;;;10.65;5.72;;;14.30;99.90;;;;;;4992463;28;20716;-79
2021/10/27 01:52:24;;;;;;;6.32;4.70;;;14.20;99.90;;;;;;4993563;28;20217;-78
2021/10/27 01:54:50;;;;;;;14.73;6.65;;;14.20;99.90;;;;;;4992235;28;20565;-78
2021/10/27 01:57:15;;;;;;;14.57;6.43;;;14.20;99.90;;;;;;4993597;28;20169;-78
2021/10/27 01:59:41;;;;;;;10.68;5.72;;;13.90;99.90;;;;;;4993329;28;20196;-78
2021/10/27 02:02:07;;;;;;;13.27;7.13;;;13.90;99.90;;;;;;4993252;28;20215;-78
2021/10/27 02:04:32;;;;;;;13.57;6.80;;;14.00;99.90;;;;;;4993379;28;20264;-78
2021/10/27 02:07:00;;;;;;;14.43;7.05;;;13.90;99.90;;;;;;4993617;28;20188;-78
2021/10/27 02:09:26;;;;;;;8.40;7.03;;;13.80;99.90;;;;;;4993342;28;20185;-78
2021/10/27 02:11:52;;;;;;;21.50;8.00;;;13.80;99.90;;;;;;4993403;28;20237;-78
2021/10/27 02:14:17;;;;;;;16.02;7.60;;;14.00;99.90;;;;;;4993351;28;20165;-78
2021/10/27 02:16:43;;;;;;;12.90;7.18;;;14.00;99.90;;;;;;4994067;28;20613;-78
2021/10/27 02:19:09;;;;;;;16.15;7.28;;;14.00;99.90;;;;;;4993303;28;20193;-78
2021/10/27 02:21:36;;;;;;;15.45;7.53;;;14.00;99.90;;;;;;4993281;28;20201;-78
2021/10/27 02:24:02;;;;;;;13.55;6.53;;;14.00;99.90;;;;;;4993031;28;20196;-78
2021/10/27 02:26:27;;;;;;;12.70;7.28;;;14.10;99.90;;;;;;4993245;28;20204;-78
2021/10/27 02:28:53;;;;;;;10.68;7.22;;;14.20;99.90;;;;;;4993294;28;20185;-78
2021/10/27 02:31:20;;;;;;;9.40;6.40;;;14.10;99.90;;;;;;4993405;28;20172;-78
2021/10/27 02:33:47;;;;;;;12.27;7.35;;;14.10;99.90;;;;;;4992979;28;20172;-77
2021/10/27 02:36:12;;;;;;;14.85;6.78;;;14.20;99.90;;;;;;4992717;28;20176;-78
2021/10/27 02:38:41;;;;;;;15.15;6.53;;;14.30;99.90;;;;;;4993024;28;20188;-78
2021/10/27 02:41:07;;;;;;;13.10;7.03;;;14.30;99.90;;;;;;4992678;28;20269;-78
2021/10/27 02:43:33;;;;;;;14.75;7.32;;;14.40;99.90;;;;;;4993046;28;20625;-78
2021/10/27 02:45:58;;;;;;;15.63;6.30;;;14.50;99.90;;;;;;4991885;28;20267;-78
2021/10/27 02:48:24;;;;;;;10.30;5.82;;;14.60;99.90;;;;;;4992779;28;20255;-79
2021/10/27 02:50:50;;;;;;;9.35;5.88;;;14.50;99.90;;;;;;4993004;28;20177;-78
2021/10/27 02:53:16;;;;;;;15.57;5.85;;;14.40;99.90;;;;;;4992956;28;20719;-78
2021/10/27 02:55:41;;;;;;;14.00;6.05;;;14.40;99.90;;;;;;4993109;28;20169;-78
2021/10/27 02:58:07;;;;;;;11.10;6.20;;;14.50;99.90;;;;;;4992689;28;20701;-78
2021/10/27 03:00:32;;;;;;;11.13;6.05;;;14.60;99.90;;;;;;4992651;28;20264;-78
2021/10/27 03:02:58;;;;;;;12.20;6.20;;;14.50;99.90;;;;;;4992843;28;20829;-78
2021/10/27 03:05:24;;;;;;;9.18;5.70;;;14.60;99.90;;;;;;4992553;28;20165;-78
2021/10/27 03:07:50;;;;;;;15.23;6.55;;;14.50;99.90;;;;;;4991271;28;20239;-78
2021/10/27 03:10:16;;;;;;;12.48;5.60;;;14.60;99.90;;;;;;4992961;28;20169;-78
2021/10/27 03:12:42;;;;;;;6.20;5.38;;;14.40;99.90;;;;;;4992905;28;20170;-78
2021/10/27 03:15:08;;;;;;;8.95;5.35;;;14.50;99.90;;;;;;4992749;28;20166;-78
2021/10/27 03:17:34;;;;;;;9.32;5.22;;;14.50;99.90;;;;;;4992891;28;20169;-78
2021/10/27 03:20:00;;;;;;;8.73;5.47;;;14.30;99.90;;;;;;4992476;28;20192;-78
2021/10/27 03:22:26;;;;;;;9.88;5.90;;;14.10;99.90;;;;;;4992469;28;20731;-78
2021/10/27 03:24:52;;;;;;;13.93;5.72;;;14.10;99.90;;;;;;4992636;28;20195;-78
2021/10/27 03:27:18;;;;;;;12.07;5.47;;;14.10;99.90;;;;;;4992443;28;20176;-78
2021/10/27 03:29:44;;;;;;;9.10;5.40;;;14.10;99.90;;;;;;4992634;28;20189;-78
2021/10/27 03:32:10;;;;;;;13.40;5.90;;;14.20;99.90;;;;;;4991481;28;20268;-78
2021/10/27 03:34:37;;;;;;;10.18;5.60;;;14.50;99.90;;;;;;4992261;28;20170;-78
2021/10/27 03:37:03;;;;;;;5.72;5.20;;;14.30;99.90;;;;;;4992446;28;20181;-78
2021/10/27 03:39:29;;;;;;;8.48;5.38;;;14.30;99.90;;;;;;4992506;28;20228;-78
2021/10/27 03:41:55;;;;;;;11.23;5.70;;;14.30;99.90;;;;;;4992428;28;20208;-78
2021/10/27 03:44:20;;;;;;;8.35;6.15;;;14.50;99.90;;;;;;4992433;28;20257;-78
2021/10/27 03:46:46;;;;;;;19.52;5.88;;;14.60;99.90;;;;;;4991449;28;20618;-78
2021/10/27 03:49:12;;;;;;;7.95;5.30;;;14.60;99.90;;;;;;4994325;28;20200;-78
2021/10/27 03:51:38;;;;;;;11.57;5.90;;;14.60;99.90;;;;;;4995933;28;20157;-78
2021/10/27 03:54:03;;;;;;;9.70;5.65;;;14.50;99.90;;;;;;4995947;28;20200;-78
2021/10/27 03:56:29;;;;;;;17.80;5.57;;;14.50;99.90;;;;;;4995921;28;20181;-78
2021/10/27 03:58:55;;;;;;;11.27;5.72;;;14.40;99.90;;;;;;4995255;28;20185;-78
2021/10/27 04:01:21;;;;;;;11.27;5.40;;;14.40;99.90;;;;;;4995097;28;20259;-78
2021/10/27 04:03:46;;;;;;;8.82;5.32;;;14.40;99.90;;;;;;4995415;28;20192;-78
2021/10/27 04:06:12;;;;;;;10.02;5.53;;;14.30;99.90;;;;;;4995524;28;20217;-78
2021/10/27 04:08:38;;;;;;;13.63;4.88;;;14.30;99.90;;;;;;4995143;28;20189;-78
2021/10/27 04:11:03;;;;;;;12.73;5.63;;;14.30;99.90;;;;;;4995229;28;20165;-78
2021/10/27 04:13:29;;;;;;;8.25;5.18;;;14.40;99.90;;;;;;4995548;28;20200;-78
2021/10/27 04:15:55;;;;;;;14.25;5.22;;;14.40;99.90;;;;;;4995421;28;20170;-78
2021/10/27 04:18:21;;;;;;;6.72;5.22;;;14.50;99.90;;;;;;4995143;28;20196;-78
2021/10/27 04:20:46;;;;;;;11.25;6.03;;;14.40;99.90;;;;;;4995717;28;20533;-78
2021/10/27 04:23:12;;;;;;;14.30;5.85;;;14.50;99.90;;;;;;4994852;28;20177;-78
2021/10/27 04:25:38;;;;;;;10.43;5.40;;;14.40;99.90;;;;;;4995111;28;20257;-78
2021/10/27 04:28:05;;;;;;;12.23;6.38;;;14.40;99.90;;;;;;4998493;28;20189;-79
2021/10/27 04:30:32;;;;;;;13.85;5.88;;;14.30;99.90;;;;;;4996802;28;20177;-78
2021/10/27 04:32:58;;;;;;;7.55;5.10;;;14.40;99.90;;;;;;4994470;28;20636;-78
2021/10/27 04:35:25;;;;;;;8.50;5.95;;;14.40;99.90;;;;;;4995443;28;20260;-78
2021/10/27 04:37:51;;;;;;;11.40;6.13;;;14.30;99.90;;;;;;4995398;28;20161;-76
2021/10/27 04:40:18;;;;;;;16.02;6.03;;;14.30;99.90;;;;;;4995267;28;20594;-76
2021/10/27 04:42:44;;;;;;;10.82;5.53;;;14.40;99.90;;;;;;4995220;28;20669;-77
2021/10/27 04:45:11;;;;;;;7.18;5.35;;;14.40;99.90;;;;;;4995401;28;20173;-78
2021/10/27 04:47:37;;;;;;;7.72;5.78;;;14.40;99.90;;;;;;4995470;28;20261;-77
2021/10/27 04:50:05;;;;;;;10.60;5.43;;;14.40;99.90;;;;;;4994860;28;20188;-77
2021/10/27 04:52:31;;;;;;;11.23;5.82;;;14.40;99.90;;;;;;4994727;28;20540;-79
2021/10/27 04:54:57;;;;;;;12.35;5.32;;;14.40;99.90;;;;;;4994286;28;20185;-77
2021/10/27 04:57:23;;;;;;;10.93;5.22;;;14.50;99.90;;;;;;4994326;28;20235;-77
2021/10/27 04:59:48;;;;;;;8.10;6.00;;;14.60;99.90;;;;;;4994193;28;20646;-77
2021/10/27 05:02:16;;;;;;;6.25;5.00;;;14.80;99.90;;;;;;4994128;28;20293;-77
2021/10/27 05:04:42;;;;;;;15.80;6.13;;;14.80;99.90;;;;;;4992322;28;20166;-77
2021/10/27 05:07:11;;;;;;;10.73;5.30;;;14.60;99.90;;;;;;4992701;28;20157;-79
2021/10/27 05:09:36;;;;;;;13.75;6.55;;;14.60;99.90;;;;;;4994213;28;20181;-78
2021/10/27 05:12:06;;;;;;;10.57;5.88;;;14.70;99.90;;;;;;4994226;28;20193;-79
2021/10/27 05:14:33;;;;;;;9.48;6.25;;;14.70;99.90;;;;;;4993968;28;20173;-79
2021/10/27 05:16:58;;;;;;;13.18;5.55;;;14.70;99.90;;;;;;4992983;28;20200;-79
2021/10/27 05:19:24;;;;;;;9.27;5.45;;;14.80;99.90;;;;;;4993884;28;20238;-78
2021/10/27 05:21:50;;;;;;;9.90;5.38;;;14.60;99.90;;;;;;4994251;28;20337;-79
2021/10/27 05:24:15;;;;;;;6.50;5.53;;;14.60;99.90;;;;;;4993966;28;20663;-79
2021/10/27 05:26:41;;;;;;;13.93;5.75;;;14.60;99.90;;;;;;4993723;28;20677;-79
2021/10/27 05:29:07;;;;;;;10.20;6.22;;;14.70;99.90;;;;;;4992123;28;20244;-79
2021/10/27 05:31:33;;;;;;;13.88;6.05;;;14.60;99.90;;;;;;4993396;28;20169;-78
2021/10/27 05:33:59;;;;;;;11.52;5.53;;;14.60;99.90;;;;;;4993424;28;20173;-79
2021/10/27 05:36:25;;;;;;;10.05;6.30;;;14.60;99.90;;;;;;4993579;28;20658;-79
2021/10/27 05:38:51;;;;;;;8.57;6.03;;;14.60;99.90;;;;;;4993338;28;20243;-79
2021/10/27 05:41:17;;;;;;;14.77;6.25;;;14.70;99.90;;;;;;4993394;28;20272;-79
2021/10/27 05:43:43;;;;;;;16.42;6.07;;;14.60;99.90;;;;;;4993050;28;20197;-78
2021/10/27 05:46:09;;;;;;;9.27;6.47;;;14.60;99.90;;;;;;4992960;28;20589;-79
2021/10/27 05:48:42;;;;;;;11.25;5.65;;;14.80;99.90;;;;;;4992781;28;20713;-79
2021/10/27 05:56:20;;;;;;;14.65;6.72;;;14.70;99.90;;;;;;4993038;28;20215;-79
2021/10/27 05:58:46;;;;;;;17.13;6.15;;;14.40;99.90;;;;;;4993500;28;20188;-79
2021/10/27 06:01:12;;;;;;;13.30;6.15;;;14.50;99.90;;;;;;4992781;28;20203;-79
2021/10/27 06:03:37;;;;;;;14.00;7.22;;;14.40;99.90;;;;;;4992720;28;20548;-79
2021/10/27 06:06:03;;;;;;;16.55;6.32;;;14.30;99.90;;;;;;4991444;28;20173;-80
2021/10/27 06:08:29;;;;;;;10.63;6.40;;;14.20;99.90;;;;;;4991485;28;20228;-79
2021/10/27 06:10:58;;;;;;;16.55;7.18;;;14.00;99.90;;;;;;4992290;28;20312;-79
2021/10/27 06:13:31;;;;;;;15.00;6.82;;;14.10;99.90;;;;;;4992292;28;20206;-79
2021/10/27 06:15:57;;;;;;;12.63;6.65;;;13.90;99.90;;;;;;4992366;28;20166;-79
2021/10/27 06:18:23;;;;;;;17.05;7.10;;;14.20;99.90;;;;;;4992188;28;20308;-83
2021/10/27 06:20:49;;;;;;;13.73;7.43;;;14.10;99.90;;;;;;4992311;28;20260;-79
2021/10/27 06:23:15;;;;;;;15.57;7.10;;;14.00;99.90;;;;;;4991919;28;20626;-79
2021/10/27 06:25:41;;;;;;;11.00;7.40;;;13.80;99.90;;;;;;4992059;28;20256;-83
2021/10/27 06:28:15;;;;;;;17.50;8.75;;;13.60;99.90;;;;;;4992844;28;20657;-82
2021/10/27 06:35:50;;;;;;;18.10;8.05;;;13.80;99.90;;;;;;4992059;28;20169;-79
2021/10/27 06:38:33;;;;;;;9.10;7.22;;;14.00;99.90;;;;;;4991701;28;20561;-78
2021/10/27 06:46:35;;;;;;;18.08;7.20;;;13.80;99.90;;;;;;4992287;28;20239;-79
2021/10/27 06:49:01;;;;;;;11.48;7.57;;;13.60;99.90;;;;;;4992469;28;20225;-84
2021/10/27 06:51:27;;;;;;;11.70;7.22;;;13.50;99.90;;;;;;4990674;28;20692;-78
2021/10/27 06:53:53;;;;;;;11.23;7.72;;;13.60;99.90;;;;;;4991833;28;20181;-79
2021/10/27 06:56:21;;;;;;;14.52;8.15;;;13.70;99.90;;;;;;4992455;28;20173;-78
2021/10/27 07:01:29;;;;;;;13.27;7.35;;;14.00;99.90;;;;;;4991705;28;20649;-78
2021/10/27 07:17:04;;;;;;;14.20;8.38;;;14.10;99.90;;;;;;4991813;28;20180;-78
2021/10/27 07:19:30;;;;;;;29.23;9.05;;;14.30;99.90;;;;;;4992617;28;20189;-78
2021/10/27 07:21:56;;;;;;;18.77;9.13;;;14.40;99.90;;;;;;4994629;28;20209;-78
2021/10/27 07:24:23;;;;;;;17.98;8.60;;;14.50;99.90;;;;;;4996241;28;20162;-79
2021/10/27 07:26:50;;;;;;;9.40;8.20;;;14.50;99.90;;;;;;4996390;28;20173;-78
2021/10/27 07:29:19;;;;;;;17.45;8.45;;;14.50;99.90;;;;;;4995933;28;20181;-78
2021/10/27 07:31:48;;;;;;;13.77;8.77;;;14.40;99.90;;;;;;4994614;28;20185;-78
2021/10/27 07:34:15;;;;;;;14.52;9.38;;;14.50;99.90;;;;;;4995882;28;20504;-78
2021/10/27 07:41:51;;;;;;;15.48;7.72;;;14.70;99.90;;;;;;4996052;28;20794;-78
2021/10/27 07:44:18;;;;;;;13.43;8.15;;;14.80;99.90;;;;;;4996026;28;20162;-78
2021/10/27 07:46:45;;;;;;;14.52;9.05;;;14.70;99.90;;;;;;4995555;28;20219;-79
2021/10/27 07:49:11;;;;;;;11.60;9.43;;;14.80;99.90;;;;;;4995316;28;20196;-77
2021/10/27 07:51:37;;;;;;;11.25;8.68;;;14.80;99.90;;;;;;4995279;28;20157;-80
2021/10/27 07:54:04;;;;;;;28.38;9.60;;;14.80;99.90;;;;;;4995501;28;20216;-77
2021/10/27 07:56:32;;;;;;;23.88;9.57;;;14.90;99.90;;;;;;4995517;28;20268;-77
2021/10/27 07:58:59;;;;;;;17.23;9.57;;;15.00;99.90;;;;;;4995352;28;20181;-78
2021/10/27 08:01:25;;;;;;;17.83;10.25;;;14.90;99.90;;;;;;4995208;28;20204;-77
2021/10/27 08:03:50;;;;;;;14.98;10.05;;;15.00;99.90;;;;;;4995415;28;20177;-78
2021/10/27 08:06:16;;;;;;;19.90;9.88;;;15.10;99.90;;;;;;4995310;28;20622;-79
2021/10/27 08:08:42;;;;;;;20.73;11.07;;;15.10;99.90;;;;;;4995066;28;20201;-80
2021/10/27 08:11:09;;;;;;;18.75;11.65;;;15.10;99.90;;;;;;4994383;28;20169;-80
2021/10/27 08:13:35;;;;;;;28.38;11.45;;;14.80;99.90;;;;;;4994749;28;20545;-81
2021/10/27 08:16:01;;;;;;;14.70;11.73;;;14.70;99.90;;;;;;4994296;28;20164;-83
2021/10/27 08:18:27;;;;;;;20.75;11.57;;;14.60;99.90;;;;;;4994990;28;20192;-85
2021/10/27 08:20:53;;;;;;;24.88;12.77;;;14.60;99.90;;;;;;4993886;28;20169;-82
2021/10/27 08:23:20;;;;;;;17.92;12.23;;;14.70;99.90;;;;;;4993116;28;20181;-80
2021/10/27 08:25:52;;;;;;;25.83;11.85;;;14.80;99.90;;;;;;4993276;28;20256;-80
2021/10/27 08:28:22;;;;;;;22.73;11.23;;;14.60;99.90;;;;;;4992979;28;20189;-80
2021/10/27 08:36:00;;;;;;;19.17;11.90;;;14.70;99.90;;;;;;4994643;28;20173;-83
2021/10/27 08:38:26;;;;;;;16.17;12.52;;;14.80;99.90;;;;;;4994262;28;20545;-81
2021/10/27 08:40:53;;;;;;;20.63;12.27;;;14.70;99.90;;;;;;4992965;28;20165;-81
2021/10/27 08:43:19;;;;;;;18.42;11.63;;;14.70;99.90;;;;;;4994624;28;20642;-81
2021/10/27 08:45:44;;;;;;;29.92;13.85;;;14.70;99.90;;;;;;4994542;28;20171;-81
2021/10/27 08:48:12;;;;;;;21.67;13.77;;;14.80;99.90;;;;;;4993685;28;20288;-83
2021/10/27 08:50:39;;;;;;;20.80;12.70;;;14.80;99.90;;;;;;4993406;28;20640;-81
2021/10/27 08:53:06;;;;;;;24.50;13.95;;;14.90;99.90;;;;;;4994168;28;20240;-80
2021/10/27 08:55:32;;;;;;;23.13;13.77;;;14.90;99.90;;;;;;5001271;28;20167;-81
2021/10/27 08:57:59;;;;;;;31.58;14.07;;;14.90;99.90;;;;;;4994759;28;20216;-80
2021/10/27 09:00:31;;;;;;;22.50;12.82;;;14.90;99.90;;;;;;4991837;28;20600;-81
2021/10/27 09:14:29;;;;;;;21.23;13.10;;;15.30;99.90;;;;;;4993738;28;20263;-84
2021/10/27 09:55:49;;;;;;;16.73;10.20;;;16.10;99.90;;;;;;4993817;28;20207;-78
2021/10/27 10:06:36;;;;;;;13.35;8.15;;;16.80;99.90;;;;;;4992387;28;20169;-77
2021/10/27 10:09:03;;;;;;;24.83;9.32;;;16.60;99.90;;;;;;4992760;28;20271;-77
2021/10/27 10:11:29;;;;;;;14.30;8.55;;;16.50;99.90;;;;;;4993098;28;20185;-78
2021/10/27 10:14:03;;;;;;;12.10;8.85;;;16.40;99.90;;;;;;4992951;28;20196;-78
2021/10/27 10:16:32;;;;;;;15.10;8.38;;;16.30;99.90;;;;;;4992652;28;20262;-78
2021/10/27 10:19:06;;;;;;;16.33;9.27;;;16.20;99.90;;;;;;4990659;28;20272;-78
2021/10/27 10:21:35;;;;;;;12.95;8.52;;;16.10;99.90;;;;;;4992439;28;20291;-78
2021/10/27 10:24:34;;;;;;;15.88;9.38;;;15.90;99.90;;;;;;4992367;28;20166;-79
2021/10/27 10:27:07;;;;;;;16.45;8.90;;;15.90;99.90;;;;;;4991316;28;20617;-82
2021/10/27 10:29:59;;;;;;;16.92;8.48;;;15.90;99.90;;;;;;4992499;28;20201;-82
2021/10/27 10:32:58;;;;;;;18.45;8.88;;;15.90;99.90;;;;;;4992041;28;20626;-78
2021/10/27 10:35:33;;;;;;;21.13;9.45;;;16.00;99.90;;;;;;4991086;28;20536;-81
2021/10/27 10:43:25;;;;;;;9.45;6.70;;;16.20;99.90;;;;;;4992341;28;20349;-79
2021/10/27 10:57:49;;;;;;;12.82;6.43;;;16.60;99.90;;;;;;4995218;28;20192;-79
2021/10/27 11:27:05;;;;;;;10.23;3.72;;;16.90;99.90;;;;;;4995570;28;20204;-79
2021/10/27 11:40:06;;;;;;;16.83;4.30;;;16.90;99.90;;;;;;4994276;28;20288;-79
2021/10/27 11:42:42;;;;;;;8.43;3.28;;;16.80;99.90;;;;;;4995214;28;20205;-79
2021/10/27 11:48:06;;;;;;;5.63;3.15;;;16.80;99.90;;;;;;4995573;28;20184;-80
2021/10/27 11:50:35;;;;;;;7.00;3.47;;;16.80;99.90;;;;;;4995423;28;20560;-80
2021/10/27 11:53:02;;;;;;;4.82;2.92;;;16.80;99.90;;;;;;4993451;28;20553;-80
2021/10/27 11:55:30;;;;;;;7.43;2.88;;;16.80;99.90;;;;;;4993328;28;20165;-80
2021/10/27 11:57:56;;;;;;;5.20;3.55;;;16.70;99.90;;;;;;4994880;28;20185;-80
2021/10/27 12:00:46;;;;;;;6.22;3.47;;;16.70;99.90;;;;;;4995345;28;20169;-82
2021/10/27 12:03:22;;;;;;;5.97;3.58;;;16.80;99.90;;;;;;4995690;28;20254;-82
2021/10/27 12:05:54;;;;;;;8.95;4.28;;;16.90;99.90;;;;;;4995424;28;20560;-81
2021/10/27 12:14:16;;;;;;;10.10;4.15;;;16.80;99.90;;;;;;4995046;28;20514;-79
2021/10/27 12:19:06;;;;;;;9.27;3.70;;;17.00;99.90;;;;;;4994782;28;20291;-79
2021/10/27 12:21:34;;;;;;;19.63;3.85;;;17.00;99.90;;;;;;4995114;28;20189;-82
2021/10/27 12:24:04;;;;;;;7.45;3.35;;;17.10;99.90;;;;;;4995019;28;20736;-79
2021/10/27 12:27:09;;;;;;;7.00;3.67;;;17.20;99.90;;;;;;4993814;28;20189;-78
2021/10/27 12:29:39;;;;;;;7.57;3.50;;;17.10;99.90;;;;;;4993252;28;20200;-78
2021/10/27 12:32:13;;;;;;;4.82;3.90;;;17.10;99.90;;;;;;4995171;28;20213;-79
2021/10/27 12:34:57;;;;;;;5.93;3.15;;;17.10;99.90;;;;;;4994571;28;20215;-80
2021/10/27 12:37:33;;;;;;;7.22;3.78;;;17.10;99.90;;;;;;4994572;28;20169;-78
2021/10/27 12:40:38;;;;;;;3.55;3.20;;;17.20;99.90;;;;;;4993335;28;20275;-80
2021/10/27 12:43:26;;;;;;;5.63;3.72;;;17.30;99.90;;;;;;4991315;28;20711;-81
2021/10/27 12:45:56;;;;;;;9.07;3.78;;;17.30;99.90;;;;;;4994614;28;20729;-79
2021/10/27 12:48:24;;;;;;;9.63;3.47;;;17.30;99.90;;;;;;4994322;28;20240;-79
2021/10/27 12:50:56;;;;;;;6.57;3.72;;;17.10;99.90;;;;;;4994685;28;20529;-90
2021/10/27 12:53:50;;;;;;;3.70;2.92;;;17.20;99.90;;;;;;4994323;28;20185;-80
2021/10/27 12:56:20;;;;;;;11.75;3.42;;;17.20;99.90;;;;;;4993022;28;20181;-78
2021/10/27 12:58:51;;;;;;;4.70;3.00;;;17.10;99.90;;;;;;4992362;28;20207;-78
2021/10/27 13:06:40;;;;;;;6.88;2.78;;;17.20;99.90;;;;;;4994416;28;20265;-80
2021/10/27 13:31:22;;;;;;;5.70;2.17;;;17.10;99.90;;;;;;4994913;28;20280;-81
2021/10/27 13:33:29;;;;;;;5.38;1.95;;;17.20;99.90;;;;;;4993539;28;20608;-83
2021/10/27 13:35:55;;;;;;;5.45;1.95;;;17.20;99.90;;;;;;4994099;28;20681;-85
2021/10/27 13:38:23;;;;;;;5.10;1.33;;;17.20;99.90;;;;;;4993948;28;20200;-80
2021/10/27 13:40:49;;;;;;;4.20;1.48;;;17.10;99.90;;;;;;4993627;28;20312;-78
2021/10/27 13:43:24;;;;;;;3.63;1.45;;;17.20;99.90;;;;;;4993396;28;20220;-78
2021/10/27 14:07:34;;;;;;;2.45;1.70;;;16.90;99.90;;;;;;4974430;28;20508;-85
2021/10/27 14:15:05;;;;;;;7.38;1.52;;;16.90;99.90;;;;;;4974892;28;20259;-81
2021/10/27 15:20:12;;;;;;;4.57;3.15;;;16.50;99.90;;;;;;4971974;28;20204;-79
2021/10/27 15:22:56;;;;;;;7.47;3.25;;;16.60;99.90;;;;;;4971880;28;20221;-82
2021/10/27 15:30:47;;;;;;;6.10;3.03;;;16.20;99.90;;;;;;4973123;28;20190;-80
2021/10/27 15:33:39;;;;;;;7.97;3.58;;;16.20;99.90;;;;;;4971276;28;20597;-79
2021/10/27 15:52:14;;;;;;;7.50;3.47;;;16.00;99.90;;;;;;4994349;28;20704;-79
2021/10/27 15:54:43;;;;;;;19.10;4.95;;;15.90;99.90;;;;;;4994631;28;20204;-78
2021/10/27 15:57:10;;;;;;;7.75;4.50;;;15.80;99.90;;;;;;4995072;28;20228;-78
2021/10/27 15:59:37;;;;;;;5.18;4.13;;;15.80;99.90;;;;;;4993350;28;20189;-80
2021/10/27 16:02:13;;;;;;;11.13;5.15;;;15.80;99.90;;;;;;4995620;28;20232;-79
2021/10/27 16:04:41;;;;;;;7.18;4.88;;;15.90;99.90;;;;;;4995708;28;20175;-79
2021/10/27 16:07:10;;;;;;;10.80;5.63;;;15.90;99.90;;;;;;4995586;28;20173;-81
2021/10/27 16:09:47;;;;;;;14.38;4.95;;;15.80;99.90;;;;;;4995362;28;20197;-80
2021/10/27 16:12:13;;;;;;;14.07;6.38;;;15.70;99.90;;;;;;4995460;28;20165;-82
2021/10/27 16:14:39;;;;;;;10.23;4.88;;;15.60;99.90;;;;;;4995693;28;20168;-79
2021/10/27 16:17:06;;;;;;;15.50;4.88;;;15.70;99.90;;;;;;4995542;28;20174;-80
2021/10/27 16:19:33;;;;;;;5.65;4.57;;;15.60;99.90;;;;;;4994935;28;20213;-81
2021/10/27 16:22:00;;;;;;;15.43;4.95;;;15.50;99.90;;;;;;4995475;28;20212;-80
2021/10/27 16:24:26;;;;;;;5.93;4.50;;;15.50;99.90;;;;;;4993952;28;20184;-88
2021/10/27 16:26:54;;;;;;;8.57;4.95;;;15.50;99.90;;;;;;4995334;28;20172;-80
2021/10/27 16:29:20;;;;;;;11.20;5.18;;;15.50;99.90;;;;;;4995016;28;20718;-79
2021/10/27 16:31:46;;;;;;;8.57;4.78;;;15.50;99.90;;;;;;4995324;28;20169;-80
2021/10/27 16:34:13;;;;;;;10.10;4.90;;;15.40;99.90;;;;;;4994912;28;20549;-79
2021/10/27 16:36:39;;;;;;;19.33;5.50;;;15.40;99.90;;;;;;4994194;28;20190;-80
2021/10/27 16:39:05;;;;;;;14.52;5.57;;;15.30;99.90;;;;;;4995018;28;20188;-81
2021/10/27 16:41:31;;;;;;;8.18;4.72;;;15.40;99.90;;;;;;4995047;28;20173;-85
2021/10/27 16:43:57;;;;;;;16.35;5.85;;;15.30;99.90;;;;;;4994963;28;20525;-80
2021/10/27 16:46:23;;;;;;;9.32;5.70;;;15.40;99.90;;;;;;4994960;28;20157;-79
2021/10/27 16:48:50;;;;;;;7.13;4.78;;;15.40;99.90;;;;;;4994610;28;20195;-80
2021/10/27 16:51:17;;;;;;;17.90;6.05;;;15.30;99.90;;;;;;4995178;28;20217;-80
2021/10/27 16:53:42;;;;;;;11.27;5.13;;;15.40;99.90;;;;;;4994067;28;20249;-81
2021/10/27 16:56:08;;;;;;;15.15;4.80;;;15.30;99.90;;;;;;4994923;28;20169;-80
2021/10/27 16:58:34;;;;;;;13.70;5.90;;;15.30;99.90;;;;;;4994525;28;20216;-81
2021/10/27 17:01:00;;;;;;;5.97;4.55;;;15.30;99.90;;;;;;4992949;28;20178;-80
2021/10/27 17:03:26;;;;;;;8.70;6.25;;;15.20;99.90;;;;;;4994180;28;20205;-79
2021/10/27 17:05:52;;;;;;;7.35;5.18;;;15.20;99.90;;;;;;4994848;28;20248;-86
2021/10/27 17:08:18;;;;;;;7.22;5.18;;;15.20;99.90;;;;;;4994651;28;20209;-84
2021/10/27 17:10:46;;;;;;;8.88;5.80;;;15.10;99.90;;;;;;4993586;28;20212;-86
2021/10/27 17:13:12;;;;;;;10.38;5.15;;;15.00;99.90;;;;;;4994617;28;20165;-79
2021/10/27 17:15:38;;;;;;;11.27;5.38;;;15.00;99.90;;;;;;4994118;28;20510;-80
2021/10/27 17:18:04;;;;;;;7.38;5.88;;;15.10;99.90;;;;;;4994279;28;20174;-80
2021/10/27 17:20:30;;;;;;;8.15;5.80;;;14.90;99.90;;;;;;4994306;28;20173;-80
2021/10/27 17:23:01;;;;;;;12.00;5.78;;;14.90;99.90;;;;;;4994240;28;20232;-79
2021/10/27 17:25:28;;;;;;;17.05;6.38;;;14.90;99.90;;;;;;4993666;28;20648;-79
2021/10/27 17:27:54;;;;;;;6.75;5.72;;;14.90;99.90;;;;;;4993883;28;20174;-79
2021/10/27 17:30:22;;;;;;;9.45;5.40;;;14.80;99.90;;;;;;4993669;28;20227;-80
2021/10/27 17:32:48;;;;;;;11.40;6.15;;;14.80;99.90;;;;;;4993703;28;20309;-79
2021/10/27 17:35:17;;;;;;;8.70;5.78;;;14.80;99.90;;;;;;4993184;28;20190;-80
2021/10/27 17:37:44;;;;;;;13.35;5.43;;;14.80;99.90;;;;;;4991920;28;20256;-81
2021/10/27 17:40:18;;;;;;;12.80;5.82;;;14.70;99.90;;;;;;4993386;28;20276;-79
2021/10/27 17:42:46;;;;;;;7.25;5.82;;;14.80;99.90;;;;;;4988976;28;20209;-80
2021/10/27 17:45:15;;;;;;;7.40;5.28;;;14.80;99.90;;;;;;4976884;28;20184;-79
2021/10/27 17:47:48;;;;;;;11.10;5.50;;;14.70;99.90;;;;;;4992084;28;20173;-81